Terminal Aerodrome Forecast
Issued by NWS Duluth, MN

Home | Current Version | Previous Version | Text Only | Print | Product List | Glossary On
Versions: 1 2 3 4 5 6 7 8 9 10 11 12 13 14 15 16 17 18
000
FTUS43 KDLH 221700
TAFDLH
TAF
KDLH 221736Z 2218/2318 31016G27KT P6SM BKN035
     FM230200 32010KT P6SM BKN045
     FM231600 32010G17KT P6SM SKC=

USA.gov is the U.S. government's official web portal to all federal, state and local government web resources and services.